sensor_id;sensor_type;location;lat;lon;timestamp;temperature;humidity
15160;DHT22;7680;48.800;9.680;2023-12-20T00:04:41;5.70;99.90
15160;DHT22;7680;48.800;9.680;2023-12-20T00:09:44;5.70;99.90
15160;DHT22;7680;48.800;9.680;2023-12-20T00:14:49;5.70;99.90
15160;DHT22;7680;48.800;9.680;2023-12-20T00:19:52;5.70;99.90
15160;DHT22;7680;48.800;9.680;2023-12-20T00:24:55;5.70;99.90
15160;DHT22;7680;48.800;9.680;2023-12-20T00:30:00;5.70;99.90
15160;DHT22;7680;48.800;9.680;2023-12-20T00:35:03;5.70;99.90
15160;DHT22;7680;48.800;9.680;2023-12-20T00:40:08;5.70;99.90
15160;DHT22;7680;48.800;9.680;2023-12-20T00:45:13;5.70;99.90
15160;DHT22;7680;48.800;9.680;2023-12-20T00:50:16;5.70;99.90
15160;DHT22;7680;48.800;9.680;2023-12-20T00:55:20;5.60;99.90
15160;DHT22;7680;48.800;9.680;2023-12-20T01:00:24;5.60;99.90
15160;DHT22;7680;48.800;9.680;2023-12-20T01:05:27;5.50;99.90
15160;DHT22;7680;48.800;9.680;2023-12-20T01:10:30;5.50;99.90
15160;DHT22;7680;48.800;9.680;2023-12-20T01:15:35;5.50;99.90
15160;DHT22;7680;48.800;9.680;2023-12-20T01:20:38;5.40;99.90
15160;DHT22;7680;48.800;9.680;2023-12-20T01:25:41;5.40;99.90
15160;DHT22;7680;48.800;9.680;2023-12-20T01:30:46;5.40;99.90
15160;DHT22;7680;48.800;9.680;2023-12-20T01:35:49;5.30;99.90
15160;DHT22;7680;48.800;9.680;2023-12-20T01:40:52;5.20;99.90
15160;DHT22;7680;48.800;9.680;2023-12-20T01:45:57;5.20;99.90
15160;DHT22;7680;48.800;9.680;2023-12-20T01:51:02;5.20;99.90
15160;DHT22;7680;48.800;9.680;2023-12-20T01:56:06;5.20;99.90
15160;DHT22;7680;48.800;9.680;2023-12-20T02:01:12;5.10;99.90
15160;DHT22;7680;48.800;9.680;2023-12-20T02:06:16;5.10;99.90
15160;DHT22;7680;48.800;9.680;2023-12-20T02:11:21;5.10;99.90
15160;DHT22;7680;48.800;9.680;2023-12-20T02:16:25;5.10;99.90
15160;DHT22;7680;48.800;9.680;2023-12-20T02:21:33;5.10;99.90
15160;DHT22;7680;48.800;9.680;2023-12-20T02:26:37;5.10;99.90
15160;DHT22;7680;48.800;9.680;2023-12-20T02:31:40;5.20;99.90
15160;DHT22;7680;48.800;9.680;2023-12-20T02:36:44;5.20;99.90
15160;DHT22;7680;48.800;9.680;2023-12-20T02:41:48;5.20;99.90
15160;DHT22;7680;48.800;9.680;2023-12-20T02:46:51;5.20;99.90
15160;DHT22;7680;48.800;9.680;2023-12-20T02:51:56;5.20;99.90
15160;DHT22;7680;48.800;9.680;2023-12-20T02:57:02;5.20;99.90
15160;DHT22;7680;48.800;9.680;2023-12-20T03:02:05;5.20;99.90
15160;DHT22;7680;48.800;9.680;2023-12-20T03:07:10;5.20;99.90
15160;DHT22;7680;48.800;9.680;2023-12-20T03:12:14;5.20;99.90
15160;DHT22;7680;48.800;9.680;2023-12-20T03:17:17;5.20;99.90
15160;DHT22;7680;48.800;9.680;2023-12-20T03:22:21;5.20;99.90
15160;DHT22;7680;48.800;9.680;2023-12-20T03:27:25;5.20;99.90
15160;DHT22;7680;48.800;9.680;2023-12-20T03:32:28;5.20;99.90
15160;DHT22;7680;48.800;9.680;2023-12-20T03:37:32;5.20;99.90
15160;DHT22;7680;48.800;9.680;2023-12-20T03:42:35;5.20;99.90
15160;DHT22;7680;48.800;9.680;2023-12-20T03:47:38;5.20;99.90
15160;DHT22;7680;48.800;9.680;2023-12-20T03:52:43;5.20;99.90
15160;DHT22;7680;48.800;9.680;2023-12-20T03:57:46;5.20;99.90
15160;DHT22;7680;48.800;9.680;2023-12-20T04:02:49;5.30;99.90
15160;DHT22;7680;48.800;9.680;2023-12-20T04:07:54;5.20;99.90
15160;DHT22;7680;48.800;9.680;2023-12-20T04:12:57;5.20;99.90
15160;DHT22;7680;48.800;9.680;2023-12-20T04:18:00;5.10;99.90
15160;DHT22;7680;48.800;9.680;2023-12-20T04:23:05;5.10;99.90
15160;DHT22;7680;48.800;9.680;2023-12-20T04:28:08;5.10;99.90
15160;DHT22;7680;48.800;9.680;2023-12-20T04:33:11;5.10;99.90
15160;DHT22;7680;48.800;9.680;2023-12-20T04:38:16;5.10;99.90
15160;DHT22;7680;48.800;9.680;2023-12-20T04:43:19;5.10;99.90
15160;DHT22;7680;48.800;9.680;2023-12-20T04:48:22;5.00;99.90
15160;DHT22;7680;48.800;9.680;2023-12-20T04:53:27;5.10;99.90
15160;DHT22;7680;48.800;9.680;2023-12-20T04:58:30;5.00;99.90
15160;DHT22;7680;48.800;9.680;2023-12-20T05:03:33;5.00;99.90
15160;DHT22;7680;48.800;9.680;2023-12-20T05:08:37;5.00;99.90
15160;DHT22;7680;48.800;9.680;2023-12-20T05:13:40;5.00;99.90
15160;DHT22;7680;48.800;9.680;2023-12-20T05:18:51;5.00;99.90
15160;DHT22;7680;48.800;9.680;2023-12-20T05:23:56;4.90;99.90
15160;DHT22;7680;48.800;9.680;2023-12-20T05:28:59;4.90;99.90
15160;DHT22;7680;48.800;9.680;2023-12-20T05:34:02;4.90;99.90
15160;DHT22;7680;48.800;9.680;2023-12-20T05:39:06;5.00;99.90
15160;DHT22;7680;48.800;9.680;2023-12-20T05:44:10;5.00;99.90
15160;DHT22;7680;48.800;9.680;2023-12-20T05:49:13;4.90;99.90
15160;DHT22;7680;48.800;9.680;2023-12-20T05:54:18;5.00;99.90
15160;DHT22;7680;48.800;9.680;2023-12-20T05:59:21;4.90;99.90
15160;DHT22;7680;48.800;9.680;2023-12-20T06:04:24;5.00;99.90
15160;DHT22;7680;48.800;9.680;2023-12-20T06:09:29;5.00;99.90
15160;DHT22;7680;48.800;9.680;2023-12-20T06:14:33;5.00;99.90
15160;DHT22;7680;48.800;9.680;2023-12-20T06:19:36;5.00;99.90
15160;DHT22;7680;48.800;9.680;2023-12-20T06:24:40;5.00;99.90
15160;DHT22;7680;48.800;9.680;2023-12-20T06:29:44;5.00;99.90
15160;DHT22;7680;48.800;9.680;2023-12-20T06:34:47;5.00;99.90
15160;DHT22;7680;48.800;9.680;2023-12-20T06:39:51;5.00;99.90
15160;DHT22;7680;48.800;9.680;2023-12-20T06:44:54;5.00;99.90
15160;DHT22;7680;48.800;9.680;2023-12-20T06:49:58;5.00;99.90
15160;DHT22;7680;48.800;9.680;2023-12-20T06:55:03;5.00;99.90
15160;DHT22;7680;48.800;9.680;2023-12-20T07:00:07;5.00;99.90
15160;DHT22;7680;48.800;9.680;2023-12-20T07:05:11;5.00;99.90
15160;DHT22;7680;48.800;9.680;2023-12-20T07:10:15;5.00;99.90
15160;DHT22;7680;48.800;9.680;2023-12-20T07:15:19;5.00;99.90
15160;DHT22;7680;48.800;9.680;2023-12-20T07:20:22;5.00;99.90
15160;DHT22;7680;48.800;9.680;2023-12-20T07:25:27;5.00;99.90
15160;DHT22;7680;48.800;9.680;2023-12-20T07:30:30;5.00;99.90
15160;DHT22;7680;48.800;9.680;2023-12-20T07:35:33;5.10;99.90
15160;DHT22;7680;48.800;9.680;2023-12-20T07:40:38;5.10;99.90
15160;DHT22;7680;48.800;9.680;2023-12-20T07:45:41;5.10;99.90
15160;DHT22;7680;48.800;9.680;2023-12-20T07:50:44;5.20;99.90
15160;DHT22;7680;48.800;9.680;2023-12-20T07:55:49;5.20;99.90
15160;DHT22;7680;48.800;9.680;2023-12-20T08:00:54;5.20;99.90
15160;DHT22;7680;48.800;9.680;2023-12-20T08:05:57;5.30;99.90
15160;DHT22;7680;48.800;9.680;2023-12-20T08:11:03;5.20;99.90
15160;DHT22;7680;48.800;9.680;2023-12-20T08:16:06;5.30;99.90
15160;DHT22;7680;48.800;9.680;2023-12-20T08:21:10;5.20;99.90
15160;DHT22;7680;48.800;9.680;2023-12-20T08:26:18;5.30;99.90
15160;DHT22;7680;48.800;9.680;2023-12-20T08:31:22;5.30;99.90
15160;DHT22;7680;48.800;9.680;2023-12-20T08:36:25;5.30;99.90
15160;DHT22;7680;48.800;9.680;2023-12-20T08:41:30;5.30;99.90
15160;DHT22;7680;48.800;9.680;2023-12-20T08:46:33;5.40;99.90
15160;DHT22;7680;48.800;9.680;2023-12-20T08:51:37;5.40;99.90
15160;DHT22;7680;48.800;9.680;2023-12-20T08:56:44;5.30;99.90
15160;DHT22;7680;48.800;9.680;2023-12-20T09:01:47;5.40;99.90
15160;DHT22;7680;48.800;9.680;2023-12-20T09:06:56;5.40;99.90
15160;DHT22;7680;48.800;9.680;2023-12-20T09:12:00;5.40;99.90
15160;DHT22;7680;48.800;9.680;2023-12-20T09:17:04;5.30;99.90
15160;DHT22;7680;48.800;9.680;2023-12-20T09:22:08;5.30;99.90
15160;DHT22;7680;48.800;9.680;2023-12-20T09:27:12;5.30;99.90
15160;DHT22;7680;48.800;9.680;2023-12-20T09:32:15;5.60;99.90
15160;DHT22;7680;48.800;9.680;2023-12-20T09:37:19;5.90;99.90
15160;DHT22;7680;48.800;9.680;2023-12-20T09:42:28;6.20;99.90
15160;DHT22;7680;48.800;9.680;2023-12-20T09:47:35;6.40;99.90
15160;DHT22;7680;48.800;9.680;2023-12-20T09:52:39;6.60;99.90
15160;DHT22;7680;48.800;9.680;2023-12-20T09:57:44;6.70;99.90
15160;DHT22;7680;48.800;9.680;2023-12-20T10:02:51;6.90;99.90
15160;DHT22;7680;48.800;9.680;2023-12-20T10:08:00;7.00;99.90
15160;DHT22;7680;48.800;9.680;2023-12-20T10:13:07;7.10;99.90
15160;DHT22;7680;48.800;9.680;2023-12-20T10:18:13;7.00;99.90
15160;DHT22;7680;48.800;9.680;2023-12-20T10:23:17;7.00;99.90
15160;DHT22;7680;48.800;9.680;2023-12-20T10:28:22;7.00;99.90
15160;DHT22;7680;48.800;9.680;2023-12-20T10:33:31;7.20;99.90
15160;DHT22;7680;48.800;9.680;2023-12-20T10:38:37;7.20;99.90
15160;DHT22;7680;48.800;9.680;2023-12-20T10:43:44;7.30;99.90
15160;DHT22;7680;48.800;9.680;2023-12-20T10:48:51;7.40;99.90
15160;DHT22;7680;48.800;9.680;2023-12-20T10:53:56;7.40;99.90
15160;DHT22;7680;48.800;9.680;2023-12-20T10:59:02;7.50;99.90
15160;DHT22;7680;48.800;9.680;2023-12-20T11:04:09;7.70;99.90
15160;DHT22;7680;48.800;9.680;2023-12-20T11:09:22;7.90;99.90
15160;DHT22;7680;48.800;9.680;2023-12-20T11:14:35;8.00;99.90
15160;DHT22;7680;48.800;9.680;2023-12-20T11:20:07;7.70;99.90
15160;DHT22;7680;48.800;9.680;2023-12-20T11:25:13;7.30;99.90
15160;DHT22;7680;48.800;9.680;2023-12-20T11:30:18;7.10;99.90
15160;DHT22;7680;48.800;9.680;2023-12-20T11:35:23;7.30;99.90
15160;DHT22;7680;48.800;9.680;2023-12-20T11:40:26;7.40;99.90
15160;DHT22;7680;48.800;9.680;2023-12-20T11:45:31;7.40;99.90
15160;DHT22;7680;48.800;9.680;2023-12-20T11:50:36;6.90;99.90
15160;DHT22;7680;48.800;9.680;2023-12-20T11:55:40;6.70;99.90
15160;DHT22;7680;48.800;9.680;2023-12-20T12:00:44;6.50;99.90
15160;DHT22;7680;48.800;9.680;2023-12-20T12:05:48;6.60;99.90
15160;DHT22;7680;48.800;9.680;2023-12-20T12:10:51;6.60;99.90
15160;DHT22;7680;48.800;9.680;2023-12-20T12:15:55;6.40;99.90
15160;DHT22;7680;48.800;9.680;2023-12-20T12:21:02;6.40;99.90
15160;DHT22;7680;48.800;9.680;2023-12-20T12:26:16;6.20;99.90
15160;DHT22;7680;48.800;9.680;2023-12-20T12:31:20;6.00;99.90
15160;DHT22;7680;48.800;9.680;2023-12-20T12:36:25;5.90;99.90
15160;DHT22;7680;48.800;9.680;2023-12-20T12:41:29;5.90;99.90
15160;DHT22;7680;48.800;9.680;2023-12-20T12:46:33;5.80;99.90
15160;DHT22;7680;48.800;9.680;2023-12-20T12:51:36;5.80;99.90
15160;DHT22;7680;48.800;9.680;2023-12-20T12:56:40;5.70;99.90
15160;DHT22;7680;48.800;9.680;2023-12-20T13:01:44;5.80;99.90
15160;DHT22;7680;48.800;9.680;2023-12-20T13:06:48;5.80;99.90
15160;DHT22;7680;48.800;9.680;2023-12-20T13:11:51;5.90;99.90
15160;DHT22;7680;48.800;9.680;2023-12-20T13:16:58;5.90;99.90
15160;DHT22;7680;48.800;9.680;2023-12-20T13:22:01;6.10;99.90
15160;DHT22;7680;48.800;9.680;2023-12-20T13:27:04;6.10;99.90
15160;DHT22;7680;48.800;9.680;2023-12-20T13:32:09;5.70;99.90
15160;DHT22;7680;48.800;9.680;2023-12-20T13:37:12;5.70;99.90
15160;DHT22;7680;48.800;9.680;2023-12-20T13:42:16;5.60;99.90
15160;DHT22;7680;48.800;9.680;2023-12-20T13:47:20;5.70;99.90
15160;DHT22;7680;48.800;9.680;2023-12-20T13:52:26;5.70;99.90
15160;DHT22;7680;48.800;9.680;2023-12-20T13:57:29;5.70;99.90
15160;DHT22;7680;48.800;9.680;2023-12-20T14:02:53;5.70;99.90
15160;DHT22;7680;48.800;9.680;2023-12-20T14:07:57;5.60;99.90
15160;DHT22;7680;48.800;9.680;2023-12-20T14:13:00;5.60;99.90
15160;DHT22;7680;48.800;9.680;2023-12-20T14:18:06;5.60;99.90
15160;DHT22;7680;48.800;9.680;2023-12-20T14:23:10;5.60;99.90
15160;DHT22;7680;48.800;9.680;2023-12-20T14:28:13;5.60;99.90
15160;DHT22;7680;48.800;9.680;2023-12-20T14:33:18;5.50;99.90
15160;DHT22;7680;48.800;9.680;2023-12-20T14:38:23;5.50;99.90
15160;DHT22;7680;48.800;9.680;2023-12-20T14:43:27;5.50;99.90
15160;DHT22;7680;48.800;9.680;2023-12-20T14:48:32;5.40;99.90
15160;DHT22;7680;48.800;9.680;2023-12-20T14:53:35;5.50;99.90
15160;DHT22;7680;48.800;9.680;2023-12-20T14:58:39;5.40;99.90
15160;DHT22;7680;48.800;9.680;2023-12-20T15:03:43;5.30;99.90
15160;DHT22;7680;48.800;9.680;2023-12-20T15:08:46;5.30;99.90
15160;DHT22;7680;48.800;9.680;2023-12-20T15:13:50;5.40;99.90
15160;DHT22;7680;48.800;9.680;2023-12-20T15:18:58;5.30;99.90
15160;DHT22;7680;48.800;9.680;2023-12-20T15:24:02;5.30;99.90
15160;DHT22;7680;48.800;9.680;2023-12-20T15:29:14;5.20;99.90
15160;DHT22;7680;48.800;9.680;2023-12-20T15:34:19;5.10;99.90
15160;DHT22;7680;48.800;9.680;2023-12-20T15:39:22;5.00;99.90
15160;DHT22;7680;48.800;9.680;2023-12-20T15:44:25;5.00;99.90
15160;DHT22;7680;48.800;9.680;2023-12-20T15:49:30;5.00;99.90
15160;DHT22;7680;48.800;9.680;2023-12-20T15:54:33;4.90;99.90
15160;DHT22;7680;48.800;9.680;2023-12-20T15:59:39;4.80;99.90
15160;DHT22;7680;48.800;9.680;2023-12-20T16:04:45;4.80;99.90
15160;DHT22;7680;48.800;9.680;2023-12-20T16:09:48;4.70;99.90
15160;DHT22;7680;48.800;9.680;2023-12-20T16:14:51;4.70;99.90
15160;DHT22;7680;48.800;9.680;2023-12-20T16:19:56;4.70;99.90
15160;DHT22;7680;48.800;9.680;2023-12-20T16:24:59;4.60;99.90
15160;DHT22;7680;48.800;9.680;2023-12-20T16:30:03;4.60;99.90
15160;DHT22;7680;48.800;9.680;2023-12-20T16:35:08;4.60;99.90
15160;DHT22;7680;48.800;9.680;2023-12-20T16:40:11;4.60;99.90
15160;DHT22;7680;48.800;9.680;2023-12-20T16:45:15;4.70;99.90
15160;DHT22;7680;48.800;9.680;2023-12-20T16:50:19;4.80;99.90
15160;DHT22;7680;48.800;9.680;2023-12-20T16:55:23;5.00;99.90
15160;DHT22;7680;48.800;9.680;2023-12-20T17:00:26;4.90;99.90
15160;DHT22;7680;48.800;9.680;2023-12-20T17:05:30;5.00;99.90
15160;DHT22;7680;48.800;9.680;2023-12-20T17:10:33;5.00;99.90
15160;DHT22;7680;48.800;9.680;2023-12-20T17:15:37;5.10;99.90
15160;DHT22;7680;48.800;9.680;2023-12-20T17:20:43;5.00;99.90
15160;DHT22;7680;48.800;9.680;2023-12-20T17:25:46;5.00;99.90
15160;DHT22;7680;48.800;9.680;2023-12-20T17:30:49;5.00;99.90
15160;DHT22;7680;48.800;9.680;2023-12-20T17:35:54;5.00;99.90
15160;DHT22;7680;48.800;9.680;2023-12-20T17:40:57;5.00;99.90
15160;DHT22;7680;48.800;9.680;2023-12-20T17:46:00;4.80;99.90
15160;DHT22;7680;48.800;9.680;2023-12-20T17:51:05;4.90;99.90
15160;DHT22;7680;48.800;9.680;2023-12-20T17:56:08;5.00;99.90
15160;DHT22;7680;48.800;9.680;2023-12-20T18:01:11;4.90;99.90
15160;DHT22;7680;48.800;9.680;2023-12-20T18:06:18;4.90;99.90
15160;DHT22;7680;48.800;9.680;2023-12-20T18:11:21;4.90;99.90
15160;DHT22;7680;48.800;9.680;2023-12-20T18:16:25;4.90;99.90
15160;DHT22;7680;48.800;9.680;2023-12-20T18:21:29;4.90;99.90
15160;DHT22;7680;48.800;9.680;2023-12-20T18:26:32;4.80;99.90
15160;DHT22;7680;48.800;9.680;2023-12-20T18:31:37;4.90;99.90
15160;DHT22;7680;48.800;9.680;2023-12-20T18:36:42;4.80;99.90
15160;DHT22;7680;48.800;9.680;2023-12-20T18:41:45;4.70;99.90
15160;DHT22;7680;48.800;9.680;2023-12-20T18:46:50;5.10;99.90
15160;DHT22;7680;48.800;9.680;2023-12-20T18:51:54;5.00;99.90
15160;DHT22;7680;48.800;9.680;2023-12-20T18:56:58;5.00;99.90
15160;DHT22;7680;48.800;9.680;2023-12-20T19:02:01;4.80;99.90
15160;DHT22;7680;48.800;9.680;2023-12-20T19:07:06;4.90;99.90
15160;DHT22;7680;48.800;9.680;2023-12-20T19:12:09;4.80;99.90
15160;DHT22;7680;48.800;9.680;2023-12-20T19:17:12;4.90;99.90
15160;DHT22;7680;48.800;9.680;2023-12-20T19:22:16;4.80;99.90
15160;DHT22;7680;48.800;9.680;2023-12-20T19:27:20;4.80;99.90
15160;DHT22;7680;48.800;9.680;2023-12-20T19:32:23;5.00;99.90
15160;DHT22;7680;48.800;9.680;2023-12-20T19:37:29;5.00;99.90
15160;DHT22;7680;48.800;9.680;2023-12-20T19:42:32;5.10;99.90
15160;DHT22;7680;48.800;9.680;2023-12-20T19:47:39;5.10;99.90
15160;DHT22;7680;48.800;9.680;2023-12-20T19:52:43;5.30;99.90
15160;DHT22;7680;48.800;9.680;2023-12-20T19:57:46;5.30;99.90
15160;DHT22;7680;48.800;9.680;2023-12-20T20:02:54;5.30;99.90
15160;DHT22;7680;48.800;9.680;2023-12-20T20:07:58;5.40;99.90
15160;DHT22;7680;48.800;9.680;2023-12-20T20:13:01;5.40;99.90
15160;DHT22;7680;48.800;9.680;2023-12-20T20:18:05;5.30;99.90
15160;DHT22;7680;48.800;9.680;2023-12-20T20:23:10;5.30;99.90
15160;DHT22;7680;48.800;9.680;2023-12-20T20:28:14;5.20;99.90
15160;DHT22;7680;48.800;9.680;2023-12-20T20:33:18;5.10;99.90
15160;DHT22;7680;48.800;9.680;2023-12-20T20:38:22;5.20;99.90
15160;DHT22;7680;48.800;9.680;2023-12-20T20:43:26;5.40;99.90
15160;DHT22;7680;48.800;9.680;2023-12-20T20:48:30;5.20;99.90
15160;DHT22;7680;48.800;9.680;2023-12-20T20:53:46;5.30;99.90
15160;DHT22;7680;48.800;9.680;2023-12-20T20:58:54;5.30;99.90
15160;DHT22;7680;48.800;9.680;2023-12-20T21:03:57;5.30;99.90
15160;DHT22;7680;48.800;9.680;2023-12-20T21:09:02;5.50;99.90
15160;DHT22;7680;48.800;9.680;2023-12-20T21:14:06;5.30;99.90
15160;DHT22;7680;48.800;9.680;2023-12-20T21:19:09;5.30;99.90
15160;DHT22;7680;48.800;9.680;2023-12-20T21:24:15;5.30;99.90
15160;DHT22;7680;48.800;9.680;2023-12-20T21:29:18;5.50;99.90
15160;DHT22;7680;48.800;9.680;2023-12-20T21:34:21;5.40;99.90
15160;DHT22;7680;48.800;9.680;2023-12-20T21:39:26;5.20;99.90
15160;DHT22;7680;48.800;9.680;2023-12-20T21:44:31;5.40;99.90
15160;DHT22;7680;48.800;9.680;2023-12-20T21:49:34;5.30;99.90
15160;DHT22;7680;48.800;9.680;2023-12-20T21:54:39;5.30;99.90
15160;DHT22;7680;48.800;9.680;2023-12-20T21:59:42;5.20;99.90
15160;DHT22;7680;48.800;9.680;2023-12-20T22:04:45;5.30;99.90
15160;DHT22;7680;48.800;9.680;2023-12-20T22:09:49;5.30;99.90
15160;DHT22;7680;48.800;9.680;2023-12-20T22:14:52;5.30;99.90
15160;DHT22;7680;48.800;9.680;2023-12-20T22:19:55;5.20;99.90
15160;DHT22;7680;48.800;9.680;2023-12-20T22:25:00;5.50;99.90
15160;DHT22;7680;48.800;9.680;2023-12-20T22:30:05;5.50;99.90
15160;DHT22;7680;48.800;9.680;2023-12-20T22:35:10;5.50;99.90
15160;DHT22;7680;48.800;9.680;2023-12-20T22:40:16;5.50;99.90
15160;DHT22;7680;48.800;9.680;2023-12-20T22:45:20;5.50;99.90
15160;DHT22;7680;48.800;9.680;2023-12-20T22:50:23;5.30;99.90
15160;DHT22;7680;48.800;9.680;2023-12-20T22:55:27;5.60;99.90
15160;DHT22;7680;48.800;9.680;2023-12-20T23:00:31;5.60;99.90
15160;DHT22;7680;48.800;9.680;2023-12-20T23:05:34;5.60;99.90
15160;DHT22;7680;48.800;9.680;2023-12-20T23:10:39;5.70;99.90
15160;DHT22;7680;48.800;9.680;2023-12-20T23:15:42;5.60;99.90
15160;DHT22;7680;48.800;9.680;2023-12-20T23:20:45;5.50;99.90
15160;DHT22;7680;48.800;9.680;2023-12-20T23:25:50;5.30;99.90
15160;DHT22;7680;48.800;9.680;2023-12-20T23:30:54;5.40;99.90
15160;DHT22;7680;48.800;9.680;2023-12-20T23:35:57;5.50;99.90
15160;DHT22;7680;48.800;9.680;2023-12-20T23:41:01;5.40;99.90
15160;DHT22;7680;48.800;9.680;2023-12-20T23:46:05;5.50;99.90
15160;DHT22;7680;48.800;9.680;2023-12-20T23:51:08;5.60;99.90
15160;DHT22;7680;48.800;9.680;2023-12-20T23:56:13;5.80;99.90
